Time;durP1;ratioP1;P1;durP2;ratioP2;P2;SDS_P1;SDS_P2;PMS_P1;PMS_P2;Temp;Humidity;BMP_temperature;BMP_pressure;BME280_temperature;BME280_humidity;BME280_pressure;Samples;Min_cycle;Max_cycle;Signal;HPM_P1;HPM_P2
2023/12/17 00:01:01;;;;;;;15.32;10.63;;;10.00;99.90;;;;;;4923240;29;20110;-73
2023/12/17 00:03:27;;;;;;;18.20;11.18;;;10.00;99.90;;;;;;4939163;29;20047;-73
2023/12/17 00:05:53;;;;;;;15.40;10.60;;;10.00;99.90;;;;;;4923160;29;20203;-74
2023/12/17 00:08:20;;;;;;;15.48;10.25;;;10.00;99.90;;;;;;4938948;29;20174;-73
2023/12/17 00:10:46;;;;;;;14.15;10.80;;;10.00;99.90;;;;;;4938943;29;20043;-73
2023/12/17 00:13:12;;;;;;;15.70;10.07;;;10.00;99.90;;;;;;4938953;29;20039;-74
2023/12/17 00:15:38;;;;;;;16.60;10.32;;;10.00;99.90;;;;;;4923135;29;20073;-74
2023/12/17 00:18:05;;;;;;;14.85;9.68;;;10.00;99.90;;;;;;4938563;29;20134;-74
2023/12/17 00:20:31;;;;;;;15.98;10.23;;;10.00;99.90;;;;;;4954723;29;20138;-74
2023/12/17 00:22:57;;;;;;;15.73;9.88;;;10.00;99.90;;;;;;4938657;29;20047;-73
2023/12/17 00:25:23;;;;;;;15.73;10.63;;;10.00;99.90;;;;;;4938603;29;20106;-72
2023/12/17 00:27:48;;;;;;;18.27;10.20;;;10.00;99.90;;;;;;4938486;29;20062;-72
2023/12/17 00:30:14;;;;;;;16.65;10.98;;;10.00;99.90;;;;;;4922718;29;20043;-72
2023/12/17 00:32:40;;;;;;;15.85;10.30;;;10.00;99.90;;;;;;4923026;29;20226;-72
2023/12/17 00:35:06;;;;;;;16.92;10.93;;;9.90;99.90;;;;;;4938330;29;20047;-72
2023/12/17 00:37:32;;;;;;;14.18;10.68;;;9.90;99.90;;;;;;4938724;29;20129;-72
2023/12/17 00:39:57;;;;;;;16.90;10.70;;;9.90;99.90;;;;;;4938382;29;20039;-72
2023/12/17 00:42:23;;;;;;;16.23;10.35;;;9.90;99.90;;;;;;4922483;29;20416;-72
2023/12/17 00:44:49;;;;;;;15.23;9.80;;;9.90;99.90;;;;;;4938350;29;20043;-72
2023/12/17 00:47:14;;;;;;;16.23;9.63;;;9.90;99.90;;;;;;4922353;29;20105;-72
2023/12/17 00:49:40;;;;;;;16.40;9.15;;;9.90;99.90;;;;;;4922439;29;20135;-72
2023/12/17 00:52:06;;;;;;;16.60;9.63;;;9.90;99.90;;;;;;4922371;29;20039;-72
2023/12/17 00:54:32;;;;;;;13.77;9.73;;;9.90;99.90;;;;;;4922246;29;20043;-72
2023/12/17 00:56:58;;;;;;;14.60;9.75;;;9.90;99.90;;;;;;4922301;29;20039;-72
2023/12/17 00:59:24;;;;;;;15.57;10.00;;;9.90;99.90;;;;;;4922174;28;20050;-72
2023/12/17 01:01:51;;;;;;;15.38;8.73;;;9.90;99.90;;;;;;4922071;29;20487;-72
2023/12/17 01:04:17;;;;;;;13.75;9.30;;;10.00;99.90;;;;;;4937879;29;20077;-72
2023/12/17 01:06:42;;;;;;;15.43;8.48;;;10.00;99.90;;;;;;4922108;29;20043;-72
2023/12/17 01:09:10;;;;;;;15.77;8.35;;;10.00;99.90;;;;;;4922296;29;20045;-72
2023/12/17 01:11:36;;;;;;;15.93;8.15;;;10.00;99.90;;;;;;4938118;29;20510;-72
2023/12/17 01:14:02;;;;;;;14.30;8.52;;;10.00;99.90;;;;;;4937852;29;20039;-72
2023/12/17 01:16:29;;;;;;;14.98;7.60;;;10.00;99.90;;;;;;4937632;29;20063;-72
2023/12/17 01:18:55;;;;;;;15.40;8.45;;;10.00;99.90;;;;;;4953952;29;20523;-72
2023/12/17 01:21:21;;;;;;;14.85;7.53;;;10.00;99.90;;;;;;4938155;29;20078;-72
2023/12/17 01:23:46;;;;;;;14.30;8.13;;;10.00;99.90;;;;;;4906407;29;20043;-72
2023/12/17 01:26:20;;;;;;;13.75;8.88;;;10.00;99.90;;;;;;4937542;29;20047;-72
2023/12/17 01:28:47;;;;;;;14.20;8.40;;;10.00;99.90;;;;;;4922294;29;20043;-72
2023/12/17 01:31:14;;;;;;;14.77;8.15;;;10.00;99.90;;;;;;4937857;29;20488;-72
2023/12/17 01:33:40;;;;;;;16.83;8.60;;;10.00;99.90;;;;;;4921738;29;20048;-72
2023/12/17 01:36:06;;;;;;;15.93;8.88;;;10.00;99.90;;;;;;4921964;29;20043;-74
2023/12/17 01:38:32;;;;;;;17.17;9.50;;;10.00;99.90;;;;;;4937579;29;20472;-74
2023/12/17 01:40:58;;;;;;;14.38;9.25;;;10.00;99.90;;;;;;4937453;29;20463;-74
2023/12/17 01:43:23;;;;;;;19.77;9.80;;;9.90;99.90;;;;;;4937334;29;20051;-74
2023/12/17 01:45:50;;;;;;;14.15;9.52;;;10.00;99.90;;;;;;4937430;29;20130;-74
2023/12/17 01:48:16;;;;;;;16.17;9.60;;;10.00;99.90;;;;;;4921471;29;20043;-74
2023/12/17 01:50:42;;;;;;;14.07;9.02;;;9.90;99.90;;;;;;4937304;29;20065;-74
2023/12/17 01:53:08;;;;;;;16.00;9.52;;;9.90;99.90;;;;;;4937321;29;20039;-74
2023/12/17 01:55:34;;;;;;;15.95;9.07;;;10.00;99.90;;;;;;4937281;29;20090;-74
2023/12/17 01:58:02;;;;;;;15.77;9.18;;;10.00;99.90;;;;;;4937484;29;20039;-74
2023/12/17 02:00:29;;;;;;;15.73;8.55;;;9.90;99.90;;;;;;4922035;29;20043;-73
2023/12/17 02:02:54;;;;;;;15.43;8.60;;;10.00;99.90;;;;;;4937096;29;20043;-73
2023/12/17 02:05:20;;;;;;;17.65;9.95;;;10.00;99.90;;;;;;4937199;29;20066;-73
2023/12/17 02:07:47;;;;;;;13.98;9.23;;;9.90;99.90;;;;;;4937505;29;20509;-73
2023/12/17 02:10:13;;;;;;;18.35;9.80;;;9.90;99.90;;;;;;4937225;29;20043;-73
2023/12/17 02:12:39;;;;;;;14.63;9.75;;;9.90;99.90;;;;;;4938185;29;20407;-74
2023/12/17 02:15:06;;;;;;;16.38;10.18;;;10.00;99.90;;;;;;4940878;29;20094;-74
2023/12/17 02:17:32;;;;;;;16.48;9.90;;;10.00;99.90;;;;;;4925027;29;20059;-74
2023/12/17 02:19:58;;;;;;;16.85;10.43;;;10.00;99.90;;;;;;4941208;29;20512;-74
2023/12/17 02:22:25;;;;;;;17.00;10.30;;;9.90;99.90;;;;;;4941039;29;20130;-74
2023/12/17 02:24:51;;;;;;;18.00;10.70;;;10.00;99.90;;;;;;4940819;29;20047;-74
2023/12/17 02:27:25;;;;;;;16.70;10.15;;;10.00;99.90;;;;;;4940732;29;20070;-74
2023/12/17 02:29:52;;;;;;;17.27;10.73;;;10.00;99.90;;;;;;4956721;29;20043;-74
2023/12/17 02:32:18;;;;;;;17.48;10.88;;;10.00;99.90;;;;;;4940591;29;20054;-73
2023/12/17 02:34:44;;;;;;;20.40;10.95;;;10.00;99.90;;;;;;4940739;29;20377;-74
2023/12/17 02:37:10;;;;;;;16.88;11.02;;;10.00;99.90;;;;;;4924877;29;20043;-74
2023/12/17 02:39:36;;;;;;;20.60;11.48;;;9.90;99.90;;;;;;4940885;29;20050;-74
2023/12/17 02:42:01;;;;;;;20.13;12.23;;;9.90;99.90;;;;;;4924729;29;20059;-74
2023/12/17 02:44:27;;;;;;;16.55;11.88;;;9.90;99.90;;;;;;4940723;29;20035;-74
2023/12/17 02:46:54;;;;;;;20.08;12.38;;;9.90;99.90;;;;;;4924559;29;20054;-73
2023/12/17 02:49:20;;;;;;;21.95;12.18;;;9.90;99.90;;;;;;4925145;29;20153;-74
2023/12/17 02:51:46;;;;;;;18.25;12.70;;;9.90;99.90;;;;;;4940388;29;20396;-74
2023/12/17 02:54:12;;;;;;;19.10;11.95;;;9.90;99.90;;;;;;4924439;29;20106;-74
2023/12/17 02:56:39;;;;;;;21.27;13.27;;;10.00;99.90;;;;;;4940126;29;20050;-74
2023/12/17 02:59:09;;;;;;;17.30;12.75;;;9.90;99.90;;;;;;4940295;29;20051;-74
2023/12/17 03:01:35;;;;;;;19.65;12.77;;;9.90;99.90;;;;;;4940311;29;20049;-74
2023/12/17 03:04:03;;;;;;;19.30;12.80;;;9.90;99.90;;;;;;4940196;29;20054;-74
2023/12/17 03:06:29;;;;;;;19.83;13.63;;;9.90;99.90;;;;;;4940042;29;20415;-74
2023/12/17 03:08:55;;;;;;;20.15;12.70;;;9.90;99.90;;;;;;4939912;29;20043;-74
2023/12/17 03:11:20;;;;;;;20.10;12.77;;;9.90;99.90;;;;;;4940380;29;20137;-73
2023/12/17 03:13:46;;;;;;;20.45;13.15;;;9.90;99.90;;;;;;4940062;29;20126;-74
2023/12/17 03:16:12;;;;;;;18.73;12.70;;;9.90;99.90;;;;;;4939737;29;20142;-73
2023/12/17 03:18:38;;;;;;;25.05;13.18;;;9.90;99.90;;;;;;4939949;29;20047;-73
2023/12/17 03:21:05;;;;;;;18.25;10.82;;;9.90;99.90;;;;;;4892558;29;20047;-73
2023/12/17 03:23:32;;;;;;;18.52;12.50;;;9.90;99.90;;;;;;4939308;29;20047;-74
2023/12/17 03:25:57;;;;;;;18.30;11.32;;;9.90;99.90;;;;;;4939661;29;20079;-74
2023/12/17 03:28:23;;;;;;;18.75;11.85;;;10.00;99.90;;;;;;4956836;29;20075;-74
2023/12/17 03:30:49;;;;;;;19.27;11.45;;;9.90;99.90;;;;;;4939677;29;20469;-74
2023/12/17 03:33:15;;;;;;;17.08;10.68;;;10.00;99.90;;;;;;4939879;29;20099;-74
2023/12/17 03:35:40;;;;;;;16.08;9.68;;;10.00;99.90;;;;;;4923876;29;20051;-74
2023/12/17 03:38:06;;;;;;;17.50;10.85;;;10.00;99.90;;;;;;4939601;29;20514;-74
2023/12/17 03:40:33;;;;;;;17.48;10.32;;;10.00;99.90;;;;;;4939561;29;20043;-74
2023/12/17 03:42:58;;;;;;;15.93;10.63;;;10.00;99.90;;;;;;4923664;29;20393;-74
2023/12/17 03:45:24;;;;;;;17.67;10.73;;;10.00;99.90;;;;;;4939283;29;20049;-74
2023/12/17 03:47:50;;;;;;;16.73;10.55;;;10.00;99.90;;;;;;4939692;29;20066;-74
2023/12/17 03:50:17;;;;;;;16.85;10.02;;;10.00;99.90;;;;;;4939292;29;20111;-74
2023/12/17 03:52:45;;;;;;;15.13;9.32;;;10.00;99.90;;;;;;4939288;29;20035;-74
2023/12/17 03:55:12;;;;;;;19.13;10.30;;;10.00;99.90;;;;;;4939549;29;20125;-74
2023/12/17 03:57:38;;;;;;;15.50;10.00;;;10.00;99.90;;;;;;4939375;29;20427;-74
2023/12/17 04:00:04;;;;;;;17.25;9.75;;;10.00;99.90;;;;;;4939247;29;20047;-73
2023/12/17 04:02:30;;;;;;;16.10;9.20;;;10.00;99.90;;;;;;4923257;29;20047;-74
2023/12/17 04:04:56;;;;;;;15.38;9.93;;;10.00;99.90;;;;;;4939314;29;20043;-74
2023/12/17 04:07:22;;;;;;;16.10;9.82;;;10.00;99.90;;;;;;4923217;29;20126;-74
2023/12/17 04:09:48;;;;;;;17.92;10.50;;;10.00;99.90;;;;;;4938941;29;20126;-74
2023/12/17 04:12:14;;;;;;;16.75;10.23;;;10.00;99.90;;;;;;4923364;29;20043;-74
2023/12/17 04:14:40;;;;;;;14.20;9.93;;;10.00;99.90;;;;;;4938834;29;20043;-74
2023/12/17 04:17:07;;;;;;;15.75;9.98;;;10.00;99.90;;;;;;4938584;29;20062;-74
2023/12/17 04:19:33;;;;;;;16.33;9.48;;;10.00;99.90;;;;;;4922883;29;20047;-74
2023/12/17 04:21:58;;;;;;;15.73;9.93;;;10.00;99.90;;;;;;4938815;29;20492;-74
2023/12/17 04:24:24;;;;;;;14.20;9.02;;;10.00;99.90;;;;;;4938910;29;20047;-74
2023/12/17 04:26:50;;;;;;;14.07;8.70;;;10.00;99.90;;;;;;4938816;29;20041;-74
2023/12/17 04:29:16;;;;;;;18.35;10.00;;;10.00;99.90;;;;;;4907166;29;20428;-73
2023/12/17 04:31:42;;;;;;;16.33;10.00;;;9.90;99.90;;;;;;4938817;29;20042;-74
2023/12/17 04:34:08;;;;;;;14.65;10.02;;;10.00;99.90;;;;;;4922662;28;20039;-74
2023/12/17 04:36:35;;;;;;;17.23;9.77;;;10.00;99.90;;;;;;4937653;29;20188;-74
2023/12/17 04:39:01;;;;;;;16.08;9.98;;;10.00;99.90;;;;;;4938249;29;20055;-74
2023/12/17 04:41:26;;;;;;;19.17;10.23;;;10.00;99.90;;;;;;4938670;29;20047;-74
2023/12/17 04:43:52;;;;;;;16.67;10.32;;;10.00;99.90;;;;;;4938261;29;20094;-74
2023/12/17 04:46:19;;;;;;;17.05;10.10;;;9.90;99.90;;;;;;4938476;29;20082;-74
2023/12/17 04:48:44;;;;;;;17.08;10.52;;;9.90;99.90;;;;;;4938234;29;20046;-74
2023/12/17 04:51:10;;;;;;;15.73;10.70;;;10.00;99.90;;;;;;4938532;29;20039;-71
2023/12/17 04:53:36;;;;;;;15.85;10.30;;;9.90;99.90;;;;;;4922395;29;20094;-71
2023/12/17 04:56:02;;;;;;;17.98;10.60;;;9.90;99.90;;;;;;4954464;29;20499;-72
2023/12/17 04:58:28;;;;;;;15.13;10.18;;;9.90;99.90;;;;;;4938103;29;20054;-72
2023/12/17 05:00:58;;;;;;;16.10;10.98;;;9.90;99.90;;;;;;4922269;29;20039;-72
2023/12/17 05:03:25;;;;;;;16.70;10.32;;;9.90;99.90;;;;;;4938870;29;20407;-72
2023/12/17 05:05:51;;;;;;;17.40;10.65;;;9.90;99.90;;;;;;4937927;29;20139;-73
2023/12/17 05:08:18;;;;;;;16.98;10.93;;;9.90;99.90;;;;;;4954327;29;20535;-72
2023/12/17 05:10:43;;;;;;;17.02;11.68;;;9.90;99.90;;;;;;4922046;29;20043;-72
2023/12/17 05:13:09;;;;;;;17.35;9.85;;;9.90;99.90;;;;;;4937700;29;20040;-72
2023/12/17 05:15:35;;;;;;;16.77;10.88;;;9.90;99.90;;;;;;4937876;29;20042;-72
2023/12/17 05:18:01;;;;;;;17.50;10.77;;;9.90;99.90;;;;;;4953669;28;20518;-73
2023/12/17 05:20:27;;;;;;;15.30;10.07;;;9.90;99.90;;;;;;4922262;29;20047;-72
2023/12/17 05:22:53;;;;;;;15.10;10.25;;;9.90;99.90;;;;;;4937790;29;20039;-72
2023/12/17 05:25:18;;;;;;;16.45;10.77;;;9.90;99.90;;;;;;4921843;29;20070;-73
2023/12/17 05:27:44;;;;;;;16.00;10.68;;;9.90;99.90;;;;;;4937885;29;20043;-73
2023/12/17 05:30:11;;;;;;;16.58;10.75;;;9.90;99.90;;;;;;4937740;29;20054;-73
2023/12/17 05:32:37;;;;;;;15.15;10.40;;;9.80;99.90;;;;;;4921722;29;20091;-73
2023/12/17 05:35:03;;;;;;;17.90;10.65;;;9.90;99.90;;;;;;4937595;29;20079;-73
2023/12/17 05:37:29;;;;;;;15.25;10.27;;;9.80;99.90;;;;;;4937454;29;20039;-73
2023/12/17 05:39:55;;;;;;;15.95;10.48;;;9.90;99.90;;;;;;4921761;29;20039;-73
2023/12/17 05:42:21;;;;;;;16.55;10.77;;;9.80;99.90;;;;;;4921971;29;20488;-73
2023/12/17 05:44:46;;;;;;;14.93;10.90;;;9.80;99.90;;;;;;4937732;29;20035;-73
2023/12/17 05:47:12;;;;;;;15.23;9.93;;;9.80;99.90;;;;;;4921228;29;20130;-73
2023/12/17 05:49:39;;;;;;;15.15;10.10;;;9.90;99.90;;;;;;4937758;29;20510;-72
2023/12/17 05:52:05;;;;;;;17.20;11.07;;;9.80;99.90;;;;;;4937509;29;20050;-73
2023/12/17 05:54:31;;;;;;;15.40;10.98;;;9.80;99.90;;;;;;4937309;29;20065;-73
2023/12/17 05:56:57;;;;;;;15.82;10.50;;;9.80;99.90;;;;;;4921959;29;20512;-73
2023/12/17 05:59:23;;;;;;;15.32;9.98;;;9.80;99.90;;;;;;4921441;29;20114;-73
2023/12/17 06:01:49;;;;;;;14.10;9.65;;;9.80;99.90;;;;;;4937474;29;20058;-73
2023/12/17 06:04:15;;;;;;;14.55;10.07;;;9.80;99.90;;;;;;4937309;29;20051;-73
2023/12/17 06:06:41;;;;;;;14.68;9.30;;;9.80;99.90;;;;;;4937045;29;20043;-73
2023/12/17 06:09:07;;;;;;;14.77;9.55;;;9.80;99.90;;;;;;4937048;29;20074;-73
2023/12/17 06:11:33;;;;;;;16.40;9.82;;;9.70;99.90;;;;;;4937410;29;20043;-73
2023/12/17 06:13:59;;;;;;;15.18;9.10;;;9.80;99.90;;;;;;4937346;29;20039;-73
2023/12/17 06:16:25;;;;;;;13.25;8.60;;;9.70;99.90;;;;;;4905497;29;20051;-73
2023/12/17 06:18:53;;;;;;;12.50;8.40;;;9.70;99.90;;;;;;4952849;29;20054;-73
2023/12/17 06:21:23;;;;;;;11.63;8.15;;;9.70;99.90;;;;;;4921957;29;20094;-73
2023/12/17 06:23:50;;;;;;;11.10;7.88;;;9.70;99.90;;;;;;4936882;29;20047;-73
2023/12/17 06:26:20;;;;;;;14.18;8.68;;;9.70;99.90;;;;;;4952949;29;20051;-73
2023/12/17 06:28:46;;;;;;;12.50;7.15;;;9.70;99.90;;;;;;4937265;29;20050;-73
2023/12/17 06:31:12;;;;;;;12.38;7.38;;;9.70;99.90;;;;;;4937343;29;20495;-73
2023/12/17 06:33:38;;;;;;;14.38;7.90;;;9.70;99.90;;;;;;4921214;29;20043;-73
2023/12/17 06:36:05;;;;;;;11.55;6.57;;;9.70;99.90;;;;;;4921444;29;20058;-73
2023/12/17 06:38:30;;;;;;;11.68;7.10;;;9.70;99.90;;;;;;4921076;29;20134;-73
2023/12/17 06:40:56;;;;;;;13.68;8.20;;;9.60;99.90;;;;;;4937279;29;20126;-73
2023/12/17 06:43:22;;;;;;;12.50;8.23;;;9.70;99.90;;;;;;4921116;29;20126;-73
2023/12/17 06:45:48;;;;;;;12.63;8.75;;;9.60;99.90;;;;;;4936757;29;20047;-73
2023/12/17 06:48:13;;;;;;;12.82;9.38;;;9.50;99.90;;;;;;4936862;29;20043;-73
2023/12/17 06:50:39;;;;;;;13.23;9.32;;;9.50;99.90;;;;;;4936997;29;20035;-73
2023/12/17 06:53:05;;;;;;;15.65;9.88;;;9.50;99.90;;;;;;4936996;29;20039;-73
2023/12/17 06:55:30;;;;;;;14.27;9.70;;;9.50;99.90;;;;;;4936776;29;20043;-73
2023/12/17 06:57:56;;;;;;;15.02;9.68;;;9.50;99.90;;;;;;4936811;29;20456;-73
2023/12/17 07:00:22;;;;;;;14.07;9.95;;;9.50;99.90;;;;;;4956175;29;20043;-73
2023/12/17 07:02:48;;;;;;;14.98;10.00;;;9.40;99.90;;;;;;4924347;29;20488;-73
2023/12/17 07:05:13;;;;;;;14.93;10.55;;;9.50;99.90;;;;;;4924379;29;20082;-73
2023/12/17 07:07:42;;;;;;;12.95;10.48;;;9.40;99.90;;;;;;4939903;29;20051;-73
2023/12/17 07:10:10;;;;;;;14.05;9.82;;;9.40;99.90;;;;;;4940075;29;20055;-73
2023/12/17 07:12:36;;;;;;;16.13;11.23;;;9.40;99.90;;;;;;4939961;29;20048;-74
2023/12/17 07:15:02;;;;;;;15.48;10.02;;;9.40;99.90;;;;;;4940179;29;20065;-74
2023/12/17 07:17:28;;;;;;;15.77;10.82;;;9.40;99.90;;;;;;4924047;29;20102;-73
2023/12/17 07:19:53;;;;;;;14.25;10.88;;;9.40;99.90;;;;;;4924135;29;20139;-73
2023/12/17 07:22:22;;;;;;;16.55;11.30;;;9.40;99.90;;;;;;4939838;29;20101;-73
2023/12/17 07:24:49;;;;;;;13.55;10.60;;;9.40;99.90;;;;;;4940053;29;20492;-73
2023/12/17 07:27:15;;;;;;;13.45;10.98;;;9.40;99.90;;;;;;4924025;29;20047;-73
2023/12/17 07:29:41;;;;;;;15.10;10.60;;;9.40;99.90;;;;;;4924059;29;20126;-73
2023/12/17 07:32:07;;;;;;;15.52;10.68;;;9.40;99.90;;;;;;4924189;29;20092;-73
2023/12/17 07:34:32;;;;;;;16.67;10.68;;;9.40;99.90;;;;;;4939688;29;20134;-73
2023/12/17 07:37:00;;;;;;;15.85;10.57;;;9.40;99.90;;;;;;4923955;29;20395;-73
2023/12/17 07:39:26;;;;;;;17.15;10.93;;;9.40;99.90;;;;;;4923746;29;20047;-73
2023/12/17 07:41:53;;;;;;;16.58;10.18;;;9.40;99.90;;;;;;4923781;29;20051;-73
2023/12/17 07:44:19;;;;;;;17.50;11.18;;;9.40;99.90;;;;;;4939802;29;20075;-71
2023/12/17 07:46:45;;;;;;;17.73;10.93;;;9.40;99.90;;;;;;4939350;29;20047;-72
2023/12/17 07:49:10;;;;;;;18.25;11.68;;;9.40;99.90;;;;;;4923697;29;20484;-72
2023/12/17 07:51:38;;;;;;;18.00;11.30;;;9.30;99.90;;;;;;4923422;29;20043;-71
2023/12/17 07:54:05;;;;;;;16.23;12.05;;;9.30;99.90;;;;;;4923696;29;20086;-71
2023/12/17 07:56:32;;;;;;;17.25;12.38;;;9.30;99.90;;;;;;4939171;29;20043;-71
2023/12/17 07:58:58;;;;;;;18.23;13.13;;;9.30;99.90;;;;;;4939628;29;20043;-71
2023/12/17 08:01:30;;;;;;;17.88;13.30;;;9.30;99.90;;;;;;4923429;29;20499;-71
2023/12/17 08:03:57;;;;;;;19.33;13.43;;;9.30;99.90;;;;;;4923611;29;20043;-72
2023/12/17 08:06:24;;;;;;;17.33;12.55;;;9.30;99.90;;;;;;4939052;29;20054;-72
2023/12/17 08:08:50;;;;;;;19.92;12.63;;;9.40;99.90;;;;;;4923585;29;20085;-71
2023/12/17 08:11:16;;;;;;;21.85;13.73;;;9.30;99.90;;;;;;4939066;29;20102;-71
2023/12/17 08:13:43;;;;;;;20.63;13.50;;;9.40;99.90;;;;;;4939121;29;20093;-71
2023/12/17 08:16:09;;;;;;;20.15;14.38;;;9.30;99.90;;;;;;4938797;29;20051;-72
2023/12/17 08:18:36;;;;;;;19.50;14.07;;;9.40;99.90;;;;;;4938781;29;20071;-72
2023/12/17 08:21:02;;;;;;;21.27;14.10;;;9.40;99.90;;;;;;4938791;29;20089;-72
2023/12/17 08:23:29;;;;;;;20.40;13.68;;;9.30;99.90;;;;;;4954771;29;20054;-72
2023/12/17 08:25:54;;;;;;;20.60;14.77;;;9.30;99.90;;;;;;4907077;29;20186;-72
2023/12/17 08:28:21;;;;;;;20.55;14.45;;;9.30;99.90;;;;;;4938669;29;20129;-72
2023/12/17 08:30:47;;;;;;;19.95;14.82;;;9.30;99.90;;;;;;4938656;29;20054;-72
2023/12/17 08:33:13;;;;;;;19.75;13.77;;;9.30;99.90;;;;;;4938926;29;20047;-71
2023/12/17 08:35:39;;;;;;;19.33;13.57;;;9.40;99.90;;;;;;4938515;29;20043;-72
2023/12/17 08:38:06;;;;;;;18.10;13.30;;;9.40;99.90;;;;;;4938534;29;20179;-72
2023/12/17 08:40:39;;;;;;;18.35;12.27;;;9.40;99.90;;;;;;4891627;29;20047;-72
2023/12/17 08:43:06;;;;;;;20.02;12.60;;;9.40;99.90;;;;;;4938691;29;20392;-72
2023/12/17 08:45:32;;;;;;;17.92;11.73;;;9.40;99.90;;;;;;4922771;29;20487;-72
2023/12/17 08:47:59;;;;;;;17.70;11.05;;;9.40;99.90;;;;;;4906918;29;20122;-71
2023/12/17 08:50:25;;;;;;;16.35;10.88;;;9.40;99.90;;;;;;4938204;29;20039;-72
2023/12/17 08:52:52;;;;;;;18.08;10.10;;;9.40;99.90;;;;;;4922467;29;20140;-73
2023/12/17 08:55:19;;;;;;;14.93;7.97;;;9.40;99.90;;;;;;4954555;29;20597;-74
2023/12/17 08:57:48;;;;;;;15.70;8.50;;;9.40;99.90;;;;;;4938160;29;20514;-73
2023/12/17 09:00:16;;;;;;;16.55;8.85;;;9.40;99.90;;;;;;4922301;29;20043;-73
2023/12/17 09:02:42;;;;;;;16.17;8.30;;;9.40;99.90;;;;;;4938013;29;20047;-73
2023/12/17 09:05:08;;;;;;;14.13;8.23;;;9.50;99.90;;;;;;4953867;29;20518;-74
2023/12/17 09:07:34;;;;;;;14.73;7.88;;;9.40;99.90;;;;;;4937760;29;20115;-73
2023/12/17 09:10:01;;;;;;;14.57;7.32;;;9.40;99.90;;;;;;4938263;29;20484;-74
2023/12/17 09:12:27;;;;;;;15.13;7.75;;;9.40;99.90;;;;;;4938090;29;20043;-74
2023/12/17 09:14:52;;;;;;;15.05;7.93;;;9.50;99.90;;;;;;4922368;29;20131;-74
2023/12/17 09:17:18;;;;;;;13.60;7.13;;;9.50;99.90;;;;;;4921787;29;20055;-74
2023/12/17 09:19:44;;;;;;;14.55;8.18;;;9.50;99.90;;;;;;4922119;29;20047;-74
2023/12/17 09:22:10;;;;;;;14.52;8.07;;;9.50;99.90;;;;;;4937442;29;20039;-74
2023/12/17 09:24:36;;;;;;;12.93;8.10;;;9.50;99.90;;;;;;4937705;29;20047;-74
2023/12/17 09:27:04;;;;;;;14.75;8.60;;;9.50;99.90;;;;;;4921933;29;20046;-74
2023/12/17 09:29:30;;;;;;;13.63;7.93;;;9.50;99.90;;;;;;4937821;29;20046;-74
2023/12/17 09:31:56;;;;;;;14.70;8.80;;;9.60;99.90;;;;;;4937936;29;20039;-74
2023/12/17 09:34:21;;;;;;;17.70;8.57;;;9.60;99.90;;;;;;4937851;29;20039;-74
2023/12/17 09:36:47;;;;;;;16.55;9.27;;;9.60;99.90;;;;;;4953741;29;20035;-74
2023/12/17 09:39:13;;;;;;;15.57;9.75;;;9.50;99.90;;;;;;4937780;29;20049;-74
2023/12/17 09:41:41;;;;;;;18.83;9.50;;;9.60;99.90;;;;;;4905922;29;20050;-73
2023/12/17 09:44:07;;;;;;;17.35;10.70;;;9.60;99.90;;;;;;4921782;29;20555;-74
2023/12/17 09:46:35;;;;;;;17.10;10.30;;;9.60;99.90;;;;;;4937361;29;20138;-74
2023/12/17 09:49:01;;;;;;;17.65;11.90;;;9.60;99.90;;;;;;4937750;29;20051;-74
2023/12/17 09:51:28;;;;;;;18.77;12.88;;;9.60;99.90;;;;;;4905959;29;20040;-74
2023/12/17 09:53:57;;;;;;;19.42;12.82;;;9.60;99.90;;;;;;4937598;29;20047;-74
2023/12/17 09:56:22;;;;;;;21.05;13.43;;;9.60;99.90;;;;;;4937417;29;20049;-74
2023/12/17 09:58:48;;;;;;;22.63;14.93;;;9.70;99.90;;;;;;4921707;29;20043;-74
2023/12/17 10:01:14;;;;;;;23.63;15.38;;;9.70;99.90;;;;;;4937428;29;20043;-74
2023/12/17 10:03:40;;;;;;;23.80;15.02;;;9.70;99.90;;;;;;4937316;29;20126;-74
2023/12/17 10:06:06;;;;;;;24.90;16.02;;;9.70;99.90;;;;;;4954625;29;20043;-71
2023/12/17 10:08:33;;;;;;;25.17;16.63;;;9.70;99.90;;;;;;4921762;29;20043;-71
2023/12/17 10:10:58;;;;;;;27.58;18.27;;;9.70;99.90;;;;;;4937197;29;20150;-72
2023/12/17 10:13:24;;;;;;;31.42;19.58;;;9.70;99.90;;;;;;4921680;29;20433;-69
2023/12/17 10:15:54;;;;;;;31.27;20.33;;;9.70;99.90;;;;;;4937509;29;20043;-69
2023/12/17 10:18:21;;;;;;;32.10;21.20;;;9.70;99.90;;;;;;4936896;29;20094;-70
2023/12/17 10:20:48;;;;;;;29.45;20.42;;;9.70;99.90;;;;;;4937231;29;20051;-70
2023/12/17 10:23:14;;;;;;;33.63;21.08;;;9.70;99.90;;;;;;4937154;29;20179;-71
2023/12/17 10:25:41;;;;;;;31.20;20.85;;;9.70;99.90;;;;;;4937355;29;20522;-70
2023/12/17 10:28:09;;;;;;;34.65;21.45;;;9.70;99.90;;;;;;4937195;29;20043;-69
2023/12/17 10:30:35;;;;;;;38.20;23.83;;;9.70;99.90;;;;;;4937043;29;20039;-70
2023/12/17 10:33:02;;;;;;;37.60;23.88;;;9.70;99.90;;;;;;4937515;29;20515;-70
2023/12/17 10:35:30;;;;;;;35.78;22.08;;;9.70;99.90;;;;;;4941182;29;20137;-70
2023/12/17 10:38:01;;;;;;;37.63;24.40;;;9.60;99.90;;;;;;4940709;29;20046;-70
2023/12/17 10:40:28;;;;;;;36.85;23.73;;;9.70;99.90;;;;;;4940648;29;20711;-70
2023/12/17 10:42:59;;;;;;;34.85;23.50;;;9.60;99.90;;;;;;4940882;29;20047;-70
2023/12/17 10:45:26;;;;;;;34.90;23.52;;;9.60;99.90;;;;;;4940754;29;20102;-70
2023/12/17 10:47:56;;;;;;;34.50;21.98;;;9.60;99.90;;;;;;4940415;29;20051;-71
2023/12/17 10:50:26;;;;;;;31.05;19.88;;;9.70;99.90;;;;;;4956358;29;20088;-70
2023/12/17 10:52:53;;;;;;;31.52;21.38;;;9.70;99.90;;;;;;4940526;29;20039;-71
2023/12/17 10:55:19;;;;;;;29.33;21.00;;;9.60;99.90;;;;;;4924833;29;20039;-70
2023/12/17 10:57:53;;;;;;;27.60;20.27;;;9.70;99.90;;;;;;4940453;29;20086;-70
2023/12/17 11:00:21;;;;;;;30.25;19.77;;;9.70;99.90;;;;;;4940614;29;20373;-70
2023/12/17 11:02:50;;;;;;;24.85;17.27;;;9.70;99.90;;;;;;4940406;29;20122;-70
2023/12/17 11:05:16;;;;;;;23.45;16.90;;;9.70;99.90;;;;;;4940282;29;20094;-70
2023/12/17 11:07:42;;;;;;;26.77;18.05;;;9.70;99.90;;;;;;4924175;29;20050;-70
2023/12/17 11:10:12;;;;;;;23.67;17.13;;;9.70;99.90;;;;;;4924283;29;20097;-70
2023/12/17 11:12:41;;;;;;;23.73;17.73;;;9.70;99.90;;;;;;4908715;29;20392;-71
2023/12/17 11:15:07;;;;;;;24.77;17.05;;;9.70;99.90;;;;;;4940151;29;20114;-70
2023/12/17 11:17:33;;;;;;;22.40;16.02;;;9.80;99.90;;;;;;4939891;29;20059;-70
2023/12/17 11:20:04;;;;;;;23.90;17.33;;;9.80;99.90;;;;;;4939949;29;20412;-70
2023/12/17 11:22:34;;;;;;;21.52;16.35;;;9.80;99.90;;;;;;4939968;29;20047;-71
2023/12/17 11:25:00;;;;;;;23.05;16.80;;;9.70;99.90;;;;;;4955823;29;20057;-70
2023/12/17 11:27:26;;;;;;;23.25;16.85;;;9.70;99.90;;;;;;4939700;29;20047;-70
2023/12/17 11:29:54;;;;;;;24.83;16.63;;;9.70;99.90;;;;;;4939656;29;20215;-70
2023/12/17 11:32:21;;;;;;;23.05;17.45;;;9.70;99.90;;;;;;4924446;29;20044;-71
2023/12/17 11:34:49;;;;;;;21.65;16.33;;;9.70;99.90;;;;;;4939770;29;20047;-70
2023/12/17 11:37:20;;;;;;;21.25;16.52;;;9.70;99.90;;;;;;4939835;29;20058;-70
2023/12/17 11:39:47;;;;;;;21.50;16.02;;;9.70;99.90;;;;;;4924250;29;20377;-70
2023/12/17 11:42:14;;;;;;;24.35;18.20;;;9.70;99.90;;;;;;4939586;29;20098;-70
2023/12/17 11:44:50;;;;;;;23.33;18.17;;;9.70;99.90;;;;;;4954983;28;20125;-70
2023/12/17 11:47:26;;;;;;;24.52;18.05;;;9.70;99.90;;;;;;4939362;29;20058;-70
2023/12/17 11:50:00;;;;;;;23.02;16.45;;;9.70;99.90;;;;;;4923561;29;20039;-70
2023/12/17 11:52:26;;;;;;;24.27;17.27;;;9.70;99.90;;;;;;4923772;29;20094;-70
2023/12/17 11:54:59;;;;;;;23.67;17.80;;;9.70;99.90;;;;;;4939559;29;20071;-70
2023/12/17 11:57:27;;;;;;;24.33;17.92;;;9.80;99.90;;;;;;4939211;29;20046;-70
2023/12/17 11:59:53;;;;;;;26.95;18.27;;;9.80;99.90;;;;;;4939501;29;20102;-70
2023/12/17 12:02:21;;;;;;;25.70;18.95;;;9.70;99.90;;;;;;4939111;29;20043;-70
2023/12/17 12:04:47;;;;;;;27.10;19.75;;;9.80;99.90;;;;;;4939182;29;20051;-70
2023/12/17 12:07:18;;;;;;;25.60;17.08;;;9.70;99.90;;;;;;4923262;29;20114;-70
2023/12/17 12:09:45;;;;;;;30.80;20.73;;;9.70;99.90;;;;;;4939295;29;20122;-70
2023/12/17 12:12:20;;;;;;;31.77;22.25;;;9.70;99.90;;;;;;4939023;29;20130;-70
2023/12/17 12:14:50;;;;;;;33.28;21.75;;;9.70;99.90;;;;;;4938682;29;20043;-70
2023/12/17 12:17:41;;;;;;;31.23;21.48;;;9.70;99.90;;;;;;4938655;29;20081;-70
2023/12/17 12:20:12;;;;;;;31.52;21.27;;;9.70;99.90;;;;;;4922996;29;20098;-70
2023/12/17 12:22:41;;;;;;;35.08;22.67;;;9.70;99.90;;;;;;4922918;29;20043;-70
2023/12/17 12:25:08;;;;;;;33.58;22.55;;;9.70;99.90;;;;;;4923536;29;20082;-74
2023/12/17 12:27:34;;;;;;;36.97;23.70;;;9.60;99.90;;;;;;4938562;29;20051;-74
2023/12/17 12:30:00;;;;;;;34.38;22.30;;;9.60;99.90;;;;;;4938582;29;20094;-73
2023/12/17 12:32:29;;;;;;;36.55;24.13;;;9.60;99.90;;;;;;4939022;29;20039;-74
2023/12/17 12:34:55;;;;;;;35.40;23.42;;;9.70;99.90;;;;;;4938517;29;20047;-73